Time;durP1;ratioP1;P1;durP2;ratioP2;P2;SDS_P1;SDS_P2;PMS_P1;PMS_P2;Temp;Humidity;BMP_temperature;BMP_pressure;BME280_temperature;BME280_humidity;BME280_pressure;Samples;Min_cycle;Max_cycle;Signal;HPM_P1;HPM_P2
2023/03/02 00:00:40;;;;;;;50.28;23.65;;;;;;;;;;5014112;28;20042;-87
2023/03/02 00:03:09;;;;;;;45.90;23.60;;;;;;;;;;5013997;28;20056;-87
2023/03/02 00:05:37;;;;;;;52.60;24.33;;;;;;;;;;5013901;28;20490;-87
2023/03/02 00:08:04;;;;;;;51.55;24.50;;;;;;;;;;5013622;28;20050;-87
2023/03/02 00:10:31;;;;;;;50.00;23.50;;;;;;;;;;5013684;28;20046;-87
2023/03/02 00:12:59;;;;;;;41.63;22.58;;;;;;;;;;5013219;28;20046;-87
2023/03/02 00:15:26;;;;;;;44.22;22.98;;;;;;;;;;5014055;28;20056;-86
2023/03/02 00:17:53;;;;;;;43.90;23.60;;;;;;;;;;5014086;28;20049;-86
2023/03/02 00:20:21;;;;;;;48.65;22.95;;;;;;;;;;5013781;28;20418;-87
2023/03/02 00:22:48;;;;;;;44.95;23.02;;;;;;;;;;5014806;28;20057;-87
2023/03/02 00:25:16;;;;;;;43.63;22.75;;;;;;;;;;5013895;28;20340;-87
2023/03/02 00:27:43;;;;;;;45.05;22.98;;;;;;;;;;5013591;28;20042;-87
2023/03/02 00:30:12;;;;;;;48.70;23.02;;;;;;;;;;5013798;28;20059;-87
2023/03/02 00:32:39;;;;;;;46.28;23.60;;;;;;;;;;5013564;28;20054;-87
2023/03/02 00:35:07;;;;;;;48.05;22.98;;;;;;;;;;5013263;28;20137;-87
2023/03/02 00:37:35;;;;;;;47.15;23.92;;;;;;;;;;5013542;28;20052;-87
2023/03/02 00:40:05;;;;;;;45.50;23.10;;;;;;;;;;5013521;28;20129;-87
2023/03/02 00:42:32;;;;;;;41.47;21.65;;;;;;;;;;5013308;28;20057;-86
2023/03/02 00:45:00;;;;;;;49.25;22.75;;;;;;;;;;5013327;28;20061;-87
2023/03/02 00:47:28;;;;;;;44.95;22.35;;;;;;;;;;5013086;28;20057;-87
2023/03/02 00:49:56;;;;;;;46.17;23.05;;;;;;;;;;5013381;28;20052;-87
2023/03/02 00:52:23;;;;;;;40.95;21.13;;;;;;;;;;5013031;28;20057;-87
2023/03/02 00:54:50;;;;;;;40.42;21.67;;;;;;;;;;5013157;28;20046;-87
2023/03/02 00:57:17;;;;;;;45.88;22.35;;;;;;;;;;5013281;28;20512;-86
2023/03/02 00:59:45;;;;;;;41.42;22.17;;;;;;;;;;5013062;28;20049;-87
2023/03/02 01:02:12;;;;;;;44.22;20.83;;;;;;;;;;5012927;28;20492;-86
2023/03/02 01:04:41;;;;;;;41.20;21.65;;;;;;;;;;5012917;28;20046;-86
2023/03/02 01:07:12;;;;;;;40.95;21.35;;;;;;;;;;5012623;28;20058;-87
2023/03/02 01:09:40;;;;;;;42.33;22.15;;;;;;;;;;5012745;28;20050;-87
2023/03/02 01:12:10;;;;;;;45.70;21.52;;;;;;;;;;5012683;28;20136;-87
2023/03/02 01:14:38;;;;;;;45.25;21.55;;;;;;;;;;5012677;28;20073;-86
2023/03/02 01:17:06;;;;;;;39.13;19.35;;;;;;;;;;5012543;28;20050;-87
2023/03/02 01:19:33;;;;;;;42.15;20.90;;;;;;;;;;5013009;28;20041;-87
2023/03/02 01:22:00;;;;;;;42.92;21.08;;;;;;;;;;5012340;28;20046;-87
2023/03/02 01:24:27;;;;;;;45.75;20.85;;;;;;;;;;5012721;28;20057;-86
2023/03/02 01:26:54;;;;;;;44.30;21.63;;;;;;;;;;5012548;28;20133;-86
2023/03/02 01:29:22;;;;;;;41.75;21.08;;;;;;;;;;5012608;28;20068;-87
2023/03/02 01:31:49;;;;;;;41.03;20.58;;;;;;;;;;5012682;28;20049;-86
2023/03/02 01:34:16;;;;;;;36.88;20.77;;;;;;;;;;5012555;28;20061;-86
2023/03/02 01:36:44;;;;;;;42.45;21.45;;;;;;;;;;5012382;28;20132;-86
2023/03/02 01:39:15;;;;;;;44.08;21.40;;;;;;;;;;5012645;28;20073;-86
2023/03/02 01:41:45;;;;;;;44.90;21.10;;;;;;;;;;5012386;28;20052;-86
2023/03/02 01:44:31;;;;;;;40.60;20.33;;;;;;;;;;5012497;28;20053;-86
2023/03/02 01:46:58;;;;;;;36.63;20.15;;;;;;;;;;5012587;28;20050;-86
2023/03/02 01:49:26;;;;;;;39.50;20.42;;;;;;;;;;5012445;28;20403;-86
2023/03/02 01:51:54;;;;;;;43.22;20.63;;;;;;;;;;5012287;28;20483;-86
2023/03/02 01:54:22;;;;;;;42.13;20.30;;;;;;;;;;5012372;28;20060;-86
2023/03/02 01:56:50;;;;;;;38.83;20.23;;;;;;;;;;5012340;28;20061;-86
2023/03/02 01:59:19;;;;;;;38.42;21.25;;;;;;;;;;5012405;28;20049;-86
2023/03/02 02:01:49;;;;;;;44.25;20.17;;;;;;;;;;5012586;28;20125;-86
2023/03/02 02:04:17;;;;;;;38.35;20.55;;;;;;;;;;5012394;28;20049;-86
2023/03/02 02:06:47;;;;;;;45.47;21.50;;;;;;;;;;5011848;28;20049;-86
2023/03/02 02:09:16;;;;;;;37.38;19.45;;;;;;;;;;5011953;28;20060;-86
2023/03/02 02:11:43;;;;;;;39.53;19.52;;;;;;;;;;5011860;28;20053;-86
2023/03/02 02:14:13;;;;;;;38.03;20.05;;;;;;;;;;5011940;28;20077;-86
2023/03/02 02:16:40;;;;;;;38.90;20.00;;;;;;;;;;5012028;28;20053;-86
2023/03/02 02:19:27;;;;;;;44.55;20.48;;;;;;;;;;5011716;28;20064;-86
2023/03/02 02:21:54;;;;;;;38.78;19.98;;;;;;;;;;5002134;28;20062;-86
2023/03/02 02:24:28;;;;;;;39.25;19.85;;;;;;;;;;5012034;28;20462;-86
2023/03/02 02:26:56;;;;;;;33.83;18.10;;;;;;;;;;5012134;28;20490;-86
2023/03/02 02:29:25;;;;;;;40.25;19.52;;;;;;;;;;5011737;28;20057;-86
2023/03/02 02:31:54;;;;;;;37.40;19.92;;;;;;;;;;5011861;28;20054;-86
2023/03/02 02:34:27;;;;;;;38.05;19.27;;;;;;;;;;5015356;28;20085;-86
2023/03/02 02:36:56;;;;;;;44.87;20.93;;;;;;;;;;5015893;28;20132;-86
2023/03/02 02:39:27;;;;;;;38.95;19.45;;;;;;;;;;5015266;28;20049;-86
2023/03/02 02:41:56;;;;;;;43.35;20.40;;;;;;;;;;5015438;28;20413;-86
2023/03/02 02:44:23;;;;;;;37.72;19.08;;;;;;;;;;5015254;28;20050;-86
2023/03/02 02:46:50;;;;;;;36.42;19.42;;;;;;;;;;5015340;28;20064;-86
2023/03/02 02:49:25;;;;;;;33.03;17.63;;;;;;;;;;5015508;28;20482;-86
2023/03/02 02:51:52;;;;;;;34.80;19.15;;;;;;;;;;5015376;28;20067;-86
2023/03/02 02:54:20;;;;;;;37.05;19.50;;;;;;;;;;5015200;28;20056;-86
2023/03/02 02:56:48;;;;;;;38.72;19.75;;;;;;;;;;5014841;28;20049;-86
2023/03/02 02:59:27;;;;;;;41.80;19.83;;;;;;;;;;5015265;28;20417;-86
2023/03/02 03:01:55;;;;;;;38.38;19.73;;;;;;;;;;5015025;28;20050;-87
2023/03/02 03:04:25;;;;;;;36.92;19.70;;;;;;;;;;5015034;28;20049;-86
2023/03/02 03:06:57;;;;;;;38.00;18.88;;;;;;;;;;5015772;28;20050;-86
2023/03/02 03:09:25;;;;;;;37.03;18.98;;;;;;;;;;5015726;28;20076;-86
2023/03/02 03:11:54;;;;;;;40.40;20.02;;;;;;;;;;5014720;28;20072;-86
2023/03/02 03:14:24;;;;;;;39.63;19.55;;;;;;;;;;5014837;28;20049;-86
2023/03/02 03:16:51;;;;;;;40.85;20.90;;;;;;;;;;5014719;28;20487;-86
2023/03/02 03:19:26;;;;;;;35.20;18.42;;;;;;;;;;5014646;28;20050;-86
2023/03/02 03:21:55;;;;;;;34.92;18.45;;;;;;;;;;5014638;28;20050;-86
2023/03/02 03:24:22;;;;;;;44.13;19.75;;;;;;;;;;5014642;28;20050;-86
2023/03/02 03:26:49;;;;;;;33.80;18.67;;;;;;;;;;5014454;28;20046;-86
2023/03/02 03:29:17;;;;;;;39.05;19.52;;;;;;;;;;5014627;28;20046;-86
2023/03/02 03:31:44;;;;;;;40.25;19.35;;;;;;;;;;5014581;28;20487;-86
2023/03/02 03:34:12;;;;;;;36.97;19.48;;;;;;;;;;5014245;28;20054;-85
2023/03/02 03:36:42;;;;;;;38.22;19.33;;;;;;;;;;5014272;28;20046;-86
2023/03/02 03:39:10;;;;;;;46.08;20.45;;;;;;;;;;5014363;28;20132;-86
2023/03/02 03:41:38;;;;;;;36.10;19.00;;;;;;;;;;5014220;28;20046;-86
2023/03/02 03:44:05;;;;;;;33.58;18.42;;;;;;;;;;5013767;28;20046;-86
2023/03/02 03:46:32;;;;;;;36.90;17.85;;;;;;;;;;5013981;28;20054;-86
2023/03/02 03:49:01;;;;;;;40.88;18.98;;;;;;;;;;5013907;28;20053;-85
2023/03/02 03:51:34;;;;;;;35.85;18.67;;;;;;;;;;5013999;28;20057;-85
2023/03/02 03:54:06;;;;;;;34.53;18.42;;;;;;;;;;5014009;28;20100;-86
2023/03/02 03:56:40;;;;;;;38.95;19.63;;;;;;;;;;5014178;28;20438;-86
2023/03/02 03:59:08;;;;;;;36.30;18.77;;;;;;;;;;5014691;28;20494;-85
2023/03/02 04:01:36;;;;;;;38.15;20.08;;;;;;;;;;5015025;28;20049;-86
2023/03/02 04:04:05;;;;;;;39.05;19.98;;;;;;;;;;5013696;28;20046;-85
2023/03/02 04:06:32;;;;;;;39.13;19.25;;;;;;;;;;5013897;28;20046;-86
2023/03/02 04:09:03;;;;;;;41.40;20.13;;;;;;;;;;5013285;28;20056;-86
2023/03/02 04:11:31;;;;;;;36.38;18.85;;;;;;;;;;5013917;28;20049;-86
2023/03/02 04:13:59;;;;;;;35.53;18.10;;;;;;;;;;5016365;28;20050;-84
2023/03/02 04:16:26;;;;;;;42.42;19.20;;;;;;;;;;5014425;28;20064;-86
2023/03/02 04:18:54;;;;;;;38.03;19.45;;;;;;;;;;5013731;28;20514;-85
2023/03/02 04:21:21;;;;;;;36.25;19.30;;;;;;;;;;5013612;28;20401;-84
2023/03/02 04:23:51;;;;;;;37.90;17.67;;;;;;;;;;5013446;28;20494;-85
2023/03/02 04:26:18;;;;;;;42.58;21.02;;;;;;;;;;5013008;28;20053;-84
2023/03/02 04:28:49;;;;;;;34.83;18.48;;;;;;;;;;5014822;28;20085;-85
2023/03/02 04:31:16;;;;;;;38.10;19.05;;;;;;;;;;5013262;28;20077;-85
2023/03/02 04:33:44;;;;;;;37.10;19.08;;;;;;;;;;5013262;28;20050;-84
2023/03/02 04:36:11;;;;;;;39.95;19.65;;;;;;;;;;5013197;28;20050;-85
2023/03/02 04:38:38;;;;;;;34.13;17.42;;;;;;;;;;5013137;28;20056;-85
2023/03/02 04:41:06;;;;;;;34.75;18.85;;;;;;;;;;5013035;28;20049;-87
2023/03/02 04:43:33;;;;;;;35.72;18.83;;;;;;;;;;5014700;28;20088;-87
2023/03/02 04:46:00;;;;;;;40.20;17.45;;;;;;;;;;5013243;28;20053;-87
2023/03/02 04:48:27;;;;;;;40.53;19.75;;;;;;;;;;5014105;28;20145;-87
2023/03/02 04:50:54;;;;;;;39.80;18.95;;;;;;;;;;5012901;28;20494;-87
2023/03/02 04:53:22;;;;;;;39.00;18.60;;;;;;;;;;5013983;28;20056;-87
2023/03/02 04:55:49;;;;;;;35.13;18.55;;;;;;;;;;5013351;28;20068;-87
2023/03/02 04:58:16;;;;;;;42.85;18.73;;;;;;;;;;5013162;28;20050;-86
2023/03/02 05:00:43;;;;;;;39.05;18.27;;;;;;;;;;5012836;28;20046;-86
2023/03/02 05:03:11;;;;;;;42.10;20.65;;;;;;;;;;5013204;28;20429;-86
2023/03/02 05:05:38;;;;;;;47.38;19.38;;;;;;;;;;5012844;28;20421;-86
2023/03/02 05:08:05;;;;;;;44.67;21.63;;;;;;;;;;5012445;28;20147;-85
2023/03/02 05:10:32;;;;;;;38.42;19.50;;;;;;;;;;5012424;28;20049;-85
2023/03/02 05:13:01;;;;;;;36.88;19.27;;;;;;;;;;5012032;28;20120;-85
2023/03/02 05:15:30;;;;;;;45.65;22.48;;;;;;;;;;5013627;28;20517;-85
2023/03/02 05:17:58;;;;;;;42.13;20.92;;;;;;;;;;5012502;28;20049;-84
2023/03/02 05:20:26;;;;;;;42.95;23.00;;;;;;;;;;5012425;28;20140;-84
2023/03/02 05:22:54;;;;;;;42.25;22.33;;;;;;;;;;5012362;28;20425;-84
2023/03/02 05:25:22;;;;;;;43.85;21.23;;;;;;;;;;5012434;28;20049;-85
2023/03/02 05:27:49;;;;;;;41.90;21.88;;;;;;;;;;5012287;28;20054;-85
2023/03/02 05:30:16;;;;;;;45.88;21.88;;;;;;;;;;5012272;28;20076;-85
2023/03/02 05:32:44;;;;;;;39.20;19.77;;;;;;;;;;5013086;28;20049;-87
2023/03/02 05:35:13;;;;;;;46.28;19.92;;;;;;;;;;5011883;28;20065;-87
2023/03/02 05:37:43;;;;;;;36.30;18.88;;;;;;;;;;5012283;28;20395;-87
2023/03/02 05:40:12;;;;;;;41.58;19.70;;;;;;;;;;5012291;28;20132;-86
2023/03/02 05:42:41;;;;;;;41.60;19.60;;;;;;;;;;5011945;28;20129;-84
2023/03/02 05:45:09;;;;;;;36.60;18.40;;;;;;;;;;5011902;28;20068;-85
2023/03/02 05:47:36;;;;;;;37.70;19.27;;;;;;;;;;5012158;28;20072;-84
2023/03/02 05:50:04;;;;;;;44.28;21.23;;;;;;;;;;5012055;28;20057;-84
2023/03/02 05:52:31;;;;;;;42.55;22.00;;;;;;;;;;5012292;28;20046;-84
2023/03/02 05:54:58;;;;;;;52.55;24.52;;;;;;;;;;5011758;28;20046;-84
2023/03/02 05:57:25;;;;;;;44.28;22.75;;;;;;;;;;5013161;28;20050;-84
2023/03/02 05:59:53;;;;;;;39.95;20.92;;;;;;;;;;5011890;28;20053;-84
2023/03/02 06:02:20;;;;;;;45.08;22.58;;;;;;;;;;5013043;28;20507;-84
2023/03/02 06:04:47;;;;;;;42.63;21.60;;;;;;;;;;5013034;28;20058;-84
2023/03/02 06:07:14;;;;;;;36.95;20.40;;;;;;;;;;5012140;28;20046;-84
2023/03/02 06:09:42;;;;;;;37.42;18.75;;;;;;;;;;5016786;28;20132;-86
2023/03/02 06:12:12;;;;;;;44.75;20.13;;;;;;;;;;5015723;28;20052;-86
2023/03/02 06:14:39;;;;;;;42.65;19.58;;;;;;;;;;5016433;28;20056;-86
2023/03/02 06:17:10;;;;;;;48.25;19.73;;;;;;;;;;5015502;28;20046;-86
2023/03/02 06:19:37;;;;;;;41.47;19.48;;;;;;;;;;5015765;28;20053;-86
2023/03/02 06:22:04;;;;;;;43.88;19.45;;;;;;;;;;5015997;28;20052;-87
2023/03/02 06:24:31;;;;;;;40.22;20.17;;;;;;;;;;5015565;28;20061;-86
2023/03/02 06:26:58;;;;;;;40.30;19.25;;;;;;;;;;5015512;28;20528;-86
2023/03/02 06:29:26;;;;;;;41.17;19.52;;;;;;;;;;5016546;28;20140;-87
2023/03/02 06:31:53;;;;;;;43.95;19.67;;;;;;;;;;5016440;28;20046;-83
2023/03/02 06:34:21;;;;;;;35.97;19.30;;;;;;;;;;5014875;28;20480;-84
2023/03/02 06:36:48;;;;;;;44.72;20.52;;;;;;;;;;5015249;28;20046;-84
2023/03/02 06:39:15;;;;;;;44.35;20.77;;;;;;;;;;5016445;28;20050;-84
2023/03/02 06:41:43;;;;;;;42.63;21.05;;;;;;;;;;5015142;28;20137;-84
2023/03/02 06:44:10;;;;;;;44.47;20.52;;;;;;;;;;5016049;28;20064;-84
2023/03/02 06:46:38;;;;;;;43.72;20.08;;;;;;;;;;5015065;28;20473;-87
2023/03/02 06:49:06;;;;;;;43.40;20.55;;;;;;;;;;5016325;28;20136;-84
2023/03/02 06:51:33;;;;;;;39.92;18.92;;;;;;;;;;5014845;28;20046;-84
2023/03/02 06:54:01;;;;;;;43.60;21.17;;;;;;;;;;5014561;28;20045;-86
2023/03/02 06:56:28;;;;;;;38.05;19.55;;;;;;;;;;5015652;28;20056;-84
2023/03/02 06:58:55;;;;;;;43.88;21.63;;;;;;;;;;5014907;28;20079;-83
2023/03/02 07:01:22;;;;;;;41.58;20.90;;;;;;;;;;5015847;28;20050;-84
2023/03/02 07:03:50;;;;;;;48.05;22.27;;;;;;;;;;5014760;28;20084;-83
2023/03/02 07:06:17;;;;;;;41.72;21.20;;;;;;;;;;5014298;28;20045;-84
2023/03/02 07:08:45;;;;;;;41.47;20.73;;;;;;;;;;5014368;28;20056;-84
2023/03/02 07:11:12;;;;;;;41.58;21.40;;;;;;;;;;5014403;28;20046;-84
2023/03/02 07:13:39;;;;;;;43.85;20.30;;;;;;;;;;5014782;28;20054;-84
2023/03/02 07:16:08;;;;;;;38.20;20.20;;;;;;;;;;5014603;28;20053;-84
2023/03/02 07:18:35;;;;;;;37.80;20.13;;;;;;;;;;5014372;28;20046;-84
2023/03/02 07:21:06;;;;;;;39.05;21.27;;;;;;;;;;5013763;28;20430;-84
2023/03/02 07:23:33;;;;;;;40.88;22.52;;;;;;;;;;5015678;28;20084;-84
2023/03/02 07:26:00;;;;;;;43.15;21.42;;;;;;;;;;5014431;28;20061;-84
2023/03/02 07:28:27;;;;;;;43.22;20.73;;;;;;;;;;5014774;28;20061;-84
2023/03/02 07:30:54;;;;;;;44.90;20.95;;;;;;;;;;5014306;28;20510;-85
2023/03/02 07:33:22;;;;;;;46.47;21.92;;;;;;;;;;5014353;28;20075;-84
2023/03/02 07:35:49;;;;;;;46.05;21.60;;;;;;;;;;5015339;28;20060;-84
2023/03/02 07:38:17;;;;;;;46.30;23.35;;;;;;;;;;5014397;28;20046;-84
2023/03/02 07:40:44;;;;;;;49.03;22.65;;;;;;;;;;5014224;28;20042;-84
2023/03/02 07:43:11;;;;;;;52.00;23.17;;;;;;;;;;5013463;28;20056;-84
2023/03/02 07:45:38;;;;;;;45.67;22.92;;;;;;;;;;5013626;28;20057;-84
2023/03/02 07:48:06;;;;;;;57.72;24.80;;;;;;;;;;5013926;28;20462;-84
2023/03/02 07:50:33;;;;;;;67.22;29.92;;;;;;;;;;5013730;28;20084;-85
2023/03/02 07:53:01;;;;;;;75.95;32.95;;;;;;;;;;5015030;28;20085;-85
2023/03/02 07:55:28;;;;;;;87.68;36.47;;;;;;;;;;5013925;28;20045;-85
2023/03/02 07:57:55;;;;;;;81.13;38.95;;;;;;;;;;5015181;28;20103;-85
2023/03/02 08:00:23;;;;;;;78.63;36.03;;;;;;;;;;5014031;28;20054;-84
2023/03/02 08:02:50;;;;;;;80.03;36.80;;;;;;;;;;5013720;28;20142;-85
2023/03/02 08:05:17;;;;;;;75.30;35.50;;;;;;;;;;5014912;28;20053;-84
2023/03/02 08:07:45;;;;;;;74.60;35.63;;;;;;;;;;5014964;28;20136;-85
2023/03/02 08:10:13;;;;;;;57.33;29.08;;;;;;;;;;5014011;28;20136;-85
2023/03/02 08:12:41;;;;;;;55.88;25.40;;;;;;;;;;5014868;28;20092;-85
2023/03/02 08:15:09;;;;;;;48.58;20.42;;;;;;;;;;5013896;28;20053;-85
2023/03/02 08:17:36;;;;;;;34.78;18.48;;;;;;;;;;5013737;28;20096;-85
2023/03/02 08:20:04;;;;;;;32.15;17.42;;;;;;;;;;5013655;28;20494;-86
2023/03/02 08:22:31;;;;;;;31.60;16.10;;;;;;;;;;5013753;28;20060;-86
2023/03/02 08:24:58;;;;;;;28.75;15.00;;;;;;;;;;5013835;28;20475;-86
2023/03/02 08:27:26;;;;;;;26.92;14.30;;;;;;;;;;5013669;28;20049;-85
2023/03/02 08:29:53;;;;;;;25.90;14.98;;;;;;;;;;5013378;28;20057;-86
2023/03/02 08:32:20;;;;;;;26.42;15.35;;;;;;;;;;5014487;28;20065;-86
2023/03/02 08:34:50;;;;;;;36.20;21.52;;;;;;;;;;5013344;28;20057;-86
2023/03/02 08:37:18;;;;;;;28.33;16.48;;;;;;;;;;5014649;28;20045;-86
2023/03/02 08:39:45;;;;;;;22.10;14.07;;;;;;;;;;5013795;28;20149;-86
2023/03/02 08:42:13;;;;;;;25.13;15.15;;;;;;;;;;5013388;28;20089;-86
2023/03/02 08:44:40;;;;;;;29.45;15.60;;;;;;;;;;5014369;28;20399;-86
2023/03/02 08:47:07;;;;;;;25.00;14.35;;;;;;;;;;5013310;28;20057;-86
2023/03/02 08:49:36;;;;;;;22.92;13.82;;;;;;;;;;5013811;28;20050;-86
2023/03/02 08:52:04;;;;;;;24.90;13.68;;;;;;;;;;5013370;28;20053;-86
2023/03/02 08:54:33;;;;;;;23.10;13.35;;;;;;;;;;5014293;28;20061;-88
2023/03/02 08:57:01;;;;;;;20.02;13.43;;;;;;;;;;5014926;28;20136;-87
2023/03/02 08:59:28;;;;;;;52.13;45.17;;;;;;;;;;5015458;28;20069;-87
2023/03/02 09:01:55;;;;;;;27.20;15.68;;;;;;;;;;5014291;28;20049;-86
2023/03/02 09:04:23;;;;;;;63.58;16.77;;;;;;;;;;5015408;28;20403;-87
2023/03/02 09:06:50;;;;;;;25.00;14.73;;;;;;;;;;5014319;28;20049;-86
2023/03/02 09:09:17;;;;;;;59.08;16.75;;;;;;;;;;5013928;28;20089;-87
2023/03/02 09:11:45;;;;;;;25.05;14.50;;;;;;;;;;5012831;28;20054;-87
2023/03/02 09:14:12;;;;;;;18.67;14.18;;;;;;;;;;5012947;28;20092;-86
2023/03/02 09:16:39;;;;;;;22.27;14.93;;;;;;;;;;5013159;28;20168;-86
2023/03/02 09:19:07;;;;;;;37.38;20.30;;;;;;;;;;5014302;28;20050;-87
2023/03/02 09:21:34;;;;;;;32.00;15.38;;;;;;;;;;5013085;28;20050;-86
2023/03/02 09:24:01;;;;;;;32.30;13.93;;;;;;;;;;5013870;28;20474;-87
2023/03/02 09:26:29;;;;;;;20.00;14.38;;;;;;;;;;5012985;28;20049;-87
2023/03/02 09:28:56;;;;;;;28.60;15.30;;;;;;;;;;5013956;28;20049;-86
2023/03/02 09:31:24;;;;;;;23.98;14.35;;;;;;;;;;5013686;28;20050;-87
2023/03/02 09:33:51;;;;;;;21.85;14.57;;;;;;;;;;5012668;28;20042;-87
2023/03/02 09:36:20;;;;;;;18.75;13.27;;;;;;;;;;5012930;28;20072;-87
2023/03/02 09:38:48;;;;;;;20.00;14.27;;;;;;;;;;5013732;28;20461;-87
2023/03/02 09:41:21;;;;;;;27.50;14.75;;;;;;;;;;5013719;28;20061;-87
2023/03/02 09:44:03;;;;;;;28.55;15.27;;;;;;;;;;5013391;28;20081;-87
2023/03/02 09:46:33;;;;;;;21.63;15.15;;;;;;;;;;5012827;28;20050;-87
2023/03/02 09:49:07;;;;;;;21.95;14.45;;;;;;;;;;5013492;28;20054;-87
2023/03/02 09:51:46;;;;;;;24.48;14.85;;;;;;;;;;5012772;28;20100;-87
2023/03/02 09:54:15;;;;;;;23.35;15.07;;;;;;;;;;5012841;28;20049;-87
2023/03/02 09:56:43;;;;;;;24.77;15.95;;;;;;;;;;5012874;28;20054;-87
2023/03/02 09:59:20;;;;;;;21.92;15.55;;;;;;;;;;5013681;28;20085;-88
2023/03/02 10:01:50;;;;;;;23.80;16.13;;;;;;;;;;5012907;28;20509;-87
2023/03/02 10:04:21;;;;;;;21.17;15.07;;;;;;;;;;5012998;28;20113;-88
2023/03/02 10:06:53;;;;;;;23.90;15.50;;;;;;;;;;5012938;28;20057;-87
2023/03/02 10:09:21;;;;;;;21.50;15.90;;;;;;;;;;5012663;28;20056;-86
2023/03/02 10:12:08;;;;;;;24.00;15.73;;;;;;;;;;5012627;28;20056;-87
2023/03/02 10:14:41;;;;;;;32.25;16.35;;;;;;;;;;5013297;28;20057;-87
2023/03/02 10:17:23;;;;;;;19.13;15.75;;;;;;;;;;5012702;28;20050;-87
2023/03/02 10:19:55;;;;;;;26.60;16.55;;;;;;;;;;5012779;28;20053;-87
2023/03/02 10:22:28;;;;;;;26.48;16.30;;;;;;;;;;5012175;28;20057;-87
2023/03/02 10:25:22;;;;;;;32.20;16.15;;;;;;;;;;5012573;28;20061;-87
2023/03/02 10:27:55;;;;;;;22.33;16.17;;;;;;;;;;5010093;28;20054;-87
2023/03/02 10:30:29;;;;;;;22.48;16.15;;;;;;;;;;5012493;28;20050;-87
2023/03/02 10:32:59;;;;;;;23.20;15.85;;;;;;;;;;5012364;28;20625;-86
2023/03/02 10:35:28;;;;;;;29.25;15.63;;;;;;;;;;5012154;28;20064;-87
2023/03/02 10:38:06;;;;;;;20.63;15.80;;;;;;;;;;5013303;28;20096;-88
2023/03/02 10:40:46;;;;;;;30.40;16.80;;;;;;;;;;5012453;28;20141;-87
2023/03/02 10:43:16;;;;;;;22.13;16.42;;;;;;;;;;5012143;28;20050;-88
2023/03/02 10:45:44;;;;;;;24.13;15.57;;;;;;;;;;5012991;28;20042;-88
2023/03/02 10:48:12;;;;;;;22.48;16.48;;;;;;;;;;5012097;28;20060;-88
2023/03/02 10:50:42;;;;;;;22.15;16.75;;;;;;;;;;5012097;28;20054;-88
2023/03/02 10:53:17;;;;;;;25.65;17.50;;;;;;;;;;5012192;28;20054;-88
2023/03/02 10:55:49;;;;;;;22.85;17.00;;;;;;;;;;5014096;28;20053;-87
2023/03/02 10:58:21;;;;;;;26.30;16.60;;;;;;;;;;5015745;28;20093;-87
2023/03/02 11:01:06;;;;;;;24.33;17.17;;;;;;;;;;5015643;28;20064;-88
2023/03/02 11:03:33;;;;;;;20.40;15.30;;;;;;;;;;5016484;28;20046;-88
2023/03/02 11:06:11;;;;;;;23.85;15.93;;;;;;;;;;5015251;28;20049;-87
2023/03/02 11:08:39;;;;;;;24.67;16.50;;;;;;;;;;5014973;28;20532;-88
2023/03/02 11:11:20;;;;;;;21.17;15.85;;;;;;;;;;5015507;28;20045;-87
2023/03/02 11:13:47;;;;;;;23.17;16.33;;;;;;;;;;5013744;28;20050;-87
2023/03/02 11:16:17;;;;;;;22.10;15.85;;;;;;;;;;5015187;28;20054;-87
2023/03/02 11:18:50;;;;;;;27.60;16.85;;;;;;;;;;5015072;28;20042;-87
2023/03/02 11:21:27;;;;;;;24.60;15.27;;;;;;;;;;5014941;28;20053;-88
2023/03/02 11:24:05;;;;;;;25.90;17.10;;;;;;;;;;5015122;28;20289;-88
2023/03/02 11:26:37;;;;;;;23.10;17.00;;;;;;;;;;5015145;28;20049;-87
2023/03/02 11:29:23;;;;;;;25.02;16.65;;;;;;;;;;5015619;28;20133;-87
2023/03/02 11:31:51;;;;;;;25.33;15.95;;;;;;;;;;5014839;28;20050;-88
2023/03/02 11:34:19;;;;;;;20.67;15.48;;;;;;;;;;5014844;28;20050;-88
2023/03/02 11:37:05;;;;;;;29.70;15.63;;;;;;;;;;5014858;28;20224;-88
2023/03/02 11:39:38;;;;;;;25.27;15.90;;;;;;;;;;5014791;28;20481;-87
2023/03/02 11:42:20;;;;;;;24.58;16.33;;;;;;;;;;5014740;28;20054;-88
2023/03/02 11:44:48;;;;;;;21.60;16.17;;;;;;;;;;5014788;28;20050;-86
2023/03/02 11:47:16;;;;;;;28.92;15.80;;;;;;;;;;5015866;28;20046;-87
2023/03/02 11:49:50;;;;;;;21.60;16.05;;;;;;;;;;5015423;28;20050;-86
2023/03/02 11:52:19;;;;;;;24.33;15.55;;;;;;;;;;5014577;28;20050;-87
2023/03/02 11:54:54;;;;;;;19.92;15.52;;;;;;;;;;5014475;28;20516;-88
2023/03/02 11:57:29;;;;;;;28.23;16.25;;;;;;;;;;5015431;28;20049;-87
2023/03/02 11:59:57;;;;;;;38.80;30.88;;;;;;;;;;5014476;28;20053;-87
2023/03/02 12:02:25;;;;;;;27.75;16.50;;;;;;;;;;5014538;28;20391;-87
2023/03/02 12:05:03;;;;;;;21.83;15.85;;;;;;;;;;5014915;28;20076;-87
2023/03/02 12:07:30;;;;;;;22.50;15.25;;;;;;;;;;5014362;28;20088;-87
2023/03/02 12:10:02;;;;;;;56.58;36.38;;;;;;;;;;5013953;28;20133;-86
2023/03/02 12:12:46;;;;;;;23.88;17.05;;;;;;;;;;5013845;28;20054;-87
2023/03/02 12:15:36;;;;;;;22.95;16.00;;;;;;;;;;5015090;28;20092;-87
2023/03/02 12:18:22;;;;;;;31.67;21.67;;;;;;;;;;5006480;28;20494;-87
2023/03/02 12:21:06;;;;;;;46.88;30.23;;;;;;;;;;5013710;28;20141;-86
2023/03/02 12:23:33;;;;;;;;;;;;;;;;;;5014362;28;20482;-88
2023/03/02 12:26:02;;;;;;;25.83;17.55;;;;;;;;;;5014753;28;19929;-87
2023/03/02 12:28:37;;;;;;;21.63;14.13;;;;;;;;;;5014143;28;20053;-87
2023/03/02 12:31:09;;;;;;;21.35;14.27;;;;;;;;;;5014677;28;20076;-87
2023/03/02 12:33:47;;;;;;;27.92;18.27;;;;;;;;;;5014764;28;20073;-87
2023/03/02 12:36:26;;;;;;;26.38;14.38;;;;;;;;;;5014540;28;20145;-87
2023/03/02 12:39:09;;;;;;;19.83;15.55;;;;;;;;;;5014606;28;20050;-88
2023/03/02 12:41:50;;;;;;;20.92;14.05;;;;;;;;;;5013847;28;20132;-87
2023/03/02 12:44:17;;;;;;;26.30;14.48;;;;;;;;;;5013521;28;20054;-87
2023/03/02 12:46:46;;;;;;;21.40;15.27;;;;;;;;;;5014636;28;20056;-87
2023/03/02 12:49:32;;;;;;;24.75;14.60;;;;;;;;;;5014663;28;20050;-87
2023/03/02 12:52:00;;;;;;;20.65;14.73;;;;;;;;;;5013523;28;20050;-88
2023/03/02 12:54:29;;;;;;;21.02;14.75;;;;;;;;;;5013418;28;20505;-86
2023/03/02 12:57:14;;;;;;;30.25;15.60;;;;;;;;;;5013189;28;20053;-86
2023/03/02 12:59:42;;;;;;;18.30;13.90;;;;;;;;;;5013313;28;20050;-87
2023/03/02 13:02:14;;;;;;;24.35;14.95;;;;;;;;;;5013531;28;20053;-86
2023/03/02 13:04:41;;;;;;;27.75;16.40;;;;;;;;;;5013513;28;20054;-87
2023/03/02 13:07:20;;;;;;;23.45;15.93;;;;;;;;;;5012962;28;20052;-87
2023/03/02 13:09:51;;;;;;;26.27;15.05;;;;;;;;;;5013227;28;20054;-85
2023/03/02 13:12:23;;;;;;;22.63;15.32;;;;;;;;;;5013406;28;20057;-87
2023/03/02 13:14:52;;;;;;;25.27;14.82;;;;;;;;;;5013058;28;20426;-87
2023/03/02 13:17:25;;;;;;;20.35;14.77;;;;;;;;;;5012136;28;20045;-86
2023/03/02 13:19:52;;;;;;;20.15;13.85;;;;;;;;;;5012531;28;20057;-87
2023/03/02 13:22:20;;;;;;;25.00;15.27;;;;;;;;;;5013280;28;20057;-87
2023/03/02 13:24:55;;;;;;;22.30;14.77;;;;;;;;;;5017626;28;20120;-87
2023/03/02 13:27:23;;;;;;;27.40;15.05;;;;;;;;;;5013002;28;20053;-87
2023/03/02 13:29:57;;;;;;;23.80;15.73;;;;;;;;;;5014050;28;20458;-86
2023/03/02 13:32:34;;;;;;;28.35;15.52;;;;;;;;;;5012587;28;20470;-87
2023/03/02 13:35:02;;;;;;;28.25;14.68;;;;;;;;;;5013082;28;20057;-86
2023/03/02 13:37:29;;;;;;;23.30;14.80;;;;;;;;;;5013746;28;20056;-87
2023/03/02 13:39:59;;;;;;;22.60;14.00;;;;;;;;;;5013927;28;20077;-86
2023/03/02 13:42:28;;;;;;;28.48;15.18;;;;;;;;;;5013522;28;20557;-87
2023/03/02 13:44:55;;;;;;;24.77;14.25;;;;;;;;;;5012566;28;20128;-87
2023/03/02 13:47:24;;;;;;;22.17;13.80;;;;;;;;;;5012993;28;20054;-87
2023/03/02 13:49:51;;;;;;;24.20;13.75;;;;;;;;;;5013546;28;20406;-87
2023/03/02 13:52:29;;;;;;;17.77;12.55;;;;;;;;;;5013689;28;20104;-87
2023/03/02 13:54:57;;;;;;;21.42;12.90;;;;;;;;;;5012283;28;20050;-87
2023/03/02 13:57:27;;;;;;;15.25;11.48;;;;;;;;;;5012644;28;20104;-87
2023/03/02 13:59:57;;;;;;;18.88;11.48;;;;;;;;;;5013537;28;20080;-87
2023/03/02 14:02:25;;;;;;;35.17;13.15;;;;;;;;;;5012733;28;20061;-86
2023/03/02 14:04:53;;;;;;;17.40;11.07;;;;;;;;;;5012398;28;20050;-86
2023/03/02 14:07:20;;;;;;;17.75;10.48;;;;;;;;;;5013452;28;20414;-86
2023/03/02 14:09:48;;;;;;;14.43;10.13;;;;;;;;;;5012081;28;20165;-85
2023/03/02 14:12:26;;;;;;;13.13;8.95;;;;;;;;;;5012332;28;20053;-86
2023/03/02 14:14:55;;;;;;;17.15;10.02;;;;;;;;;;5012164;28;20053;-86
2023/03/02 14:17:24;;;;;;;16.13;9.15;;;;;;;;;;5012381;28;20058;-86
2023/03/02 14:19:51;;;;;;;22.52;9.70;;;;;;;;;;5012151;28;20056;-87
2023/03/02 14:22:19;;;;;;;11.88;8.25;;;;;;;;;;5012252;28;20490;-86
2023/03/02 14:24:47;;;;;;;13.68;8.57;;;;;;;;;;5012278;28;20081;-87
2023/03/02 14:27:15;;;;;;;13.02;8.32;;;;;;;;;;5012522;28;20046;-86
2023/03/02 14:29:43;;;;;;;14.60;8.60;;;;;;;;;;5014850;28;20054;-86
2023/03/02 14:32:11;;;;;;;12.88;7.93;;;;;;;;;;5016170;28;20129;-86